createdAt,value
2022-09-26T00:03:23.443Z,69.92071
2022-09-26T00:08:24.367Z,69.99136
2022-09-26T00:13:25.401Z,70.2866
2022-09-26T00:18:26.271Z,70.49643
2022-09-26T00:23:27.185Z,70.68008
2022-09-26T00:28:28.098Z,70.94409
2022-09-26T00:33:29.007Z,70.57004
2022-09-26T00:38:30.017Z,70.64544
2022-09-26T00:43:30.958Z,70.59297
2022-09-26T00:48:31.897Z,71.06244
2022-09-26T00:53:32.881Z,71.4873
2022-09-26T00:58:33.809Z,71.65821
2022-09-26T01:03:34.742Z,71.90207
2022-09-26T01:08:35.648Z,72.27286
2022-09-26T01:13:36.732Z,72.83002
2022-09-26T01:18:37.707Z,73.10832
2022-09-26T01:23:38.632Z,74.01091
2022-09-26T01:28:39.899Z,74.63658
2022-09-26T01:33:40.832Z,74.66573
2022-09-26T01:38:41.743Z,74.41305
2022-09-26T01:43:42.662Z,75.21783
2022-09-26T01:48:43.568Z,75.43517
2022-09-26T01:53:44.492Z,75.36276
2022-09-26T01:58:45.475Z,75.1059
2022-09-26T02:03:46.438Z,75.41636
2022-09-26T02:08:47.368Z,75.91747
2022-09-26T02:13:48.351Z,77.01144
2022-09-26T02:18:49.249Z,76.74856
2022-09-26T02:23:50.193Z,77.68277
2022-09-26T02:28:51.090Z,78.47128
2022-09-26T02:33:52.016Z,78.76844
2022-09-26T02:38:53.002Z,78.76262
2022-09-26T02:43:53.938Z,78.76794
2022-09-26T02:48:54.873Z,78.48864
2022-09-26T02:53:55.778Z,79.35991
2022-09-26T02:58:56.684Z,79.47826
2022-09-26T03:03:57.637Z,80.17331
2022-09-26T03:08:58.537Z,80.40983
2022-09-26T03:13:59.468Z,80.60857
2022-09-26T03:19:00.538Z,81.3904
2022-09-26T03:24:01.534Z,81.18119
2022-09-26T03:29:02.454Z,80.7881
2022-09-26T03:34:03.411Z,81.2407
2022-09-26T03:39:04.409Z,81.25463
2022-09-26T03:44:05.342Z,81.43383
2022-09-26T03:49:06.263Z,82.00865
2022-09-26T03:54:07.211Z,82.40094
2022-09-26T03:59:08.173Z,82.73588
2022-09-26T04:04:09.130Z,82.43014
2022-09-26T04:09:13.221Z,82.91192
2022-09-26T04:14:17.657Z,83.3393
2022-09-26T04:19:18.599Z,83.86366
2022-09-26T04:24:19.522Z,84.25159
2022-09-26T04:29:20.439Z,84.55086
2022-09-26T04:34:26.292Z,84.38091
2022-09-26T04:39:28.131Z,84.48914
2022-09-26T04:44:29.088Z,84.30669
2022-09-26T04:49:30.013Z,84.64355
2022-09-26T04:54:30.933Z,85.24084
2022-09-26T04:59:31.845Z,85.82241
2022-09-26T05:04:32.785Z,85.69533
2022-09-26T05:09:36.062Z,85.47747
2022-09-26T05:14:37.456Z,85.28946
2022-09-26T05:19:38.388Z,85.93257
2022-09-26T05:24:39.389Z,85.72025
2022-09-26T05:29:40.677Z,85.85823
2022-09-26T05:34:41.647Z,85.89815
2022-09-26T05:44:43.099Z,85.78375
2022-09-26T05:49:44.136Z,85.86772
2022-09-26T05:59:45.694Z,85.46058
2022-09-26T06:04:46.643Z,85.92067
2022-09-26T06:09:47.558Z,86.04589
2022-09-26T06:14:48.495Z,86.05637
2022-09-26T06:19:49.461Z,86.02957
2022-09-26T06:24:50.408Z,86.6007
2022-09-26T06:29:51.399Z,86.56022
2022-09-26T06:34:52.359Z,86.53018
2022-09-26T06:39:58.488Z,87.21797
2022-09-26T06:45:00.251Z,87.75451
2022-09-26T06:50:01.306Z,88.18814
2022-09-26T06:55:02.265Z,88.69744
2022-09-26T07:00:03.267Z,89.18103
2022-09-26T07:05:04.187Z,89.56422
2022-09-26T07:10:05.142Z,89.59641
2022-09-26T07:15:06.257Z,89.82911
2022-09-26T07:20:07.192Z,90.04973
2022-09-26T07:25:08.094Z,90.08755
2022-09-26T07:30:09.061Z,90.16962
2022-09-26T07:35:09.964Z,90.82837
2022-09-26T07:40:10.958Z,91.12583
2022-09-26T07:45:29.658Z,91.1833
2022-09-26T07:50:31.211Z,91.31588
2022-09-26T07:55:32.163Z,91.89836
2022-09-26T08:00:33.077Z,91.92534
2022-09-26T08:05:33.992Z,91.9947
2022-09-26T08:10:34.920Z,91.40282
2022-09-26T08:15:35.883Z,91.24876
2022-09-26T08:20:36.807Z,91.29895
2022-09-26T08:25:37.742Z,91.55897
2022-09-26T08:30:38.693Z,91.47468
2022-09-26T08:35:39.682Z,91.79671
2022-09-26T08:40:40.971Z,92.5223
2022-09-26T08:45:45.321Z,92.9021
2022-09-26T08:50:48.643Z,92.90451
2022-09-26T08:55:49.566Z,93.51868
2022-09-26T09:00:50.474Z,94.26034
2022-09-26T09:05:51.392Z,94.36132
2022-09-26T09:10:52.323Z,94.88292
2022-09-26T09:15:53.305Z,95.90099
2022-09-26T09:20:54.289Z,96.05825
2022-09-26T09:25:55.325Z,95.96459
2022-09-26T09:30:56.316Z,96.72283
2022-09-26T09:35:57.295Z,97.68352
2022-09-26T09:40:58.301Z,97.56698
2022-09-26T09:45:59.294Z,98.01582
2022-09-26T09:51:00.222Z,98.7085
2022-09-26T09:56:01.398Z,99.70423
2022-09-26T10:01:02.520Z,100.69161
2022-09-26T10:06:03.437Z,100.4584
2022-09-26T10:11:04.364Z,100.97024
2022-09-26T10:16:05.421Z,101.31991
2022-09-26T10:21:06.402Z,102.41524
2022-09-26T10:26:07.324Z,103.07937
2022-09-26T10:31:08.336Z,103.21862
2022-09-26T10:36:09.358Z,103.95028
2022-09-26T10:41:10.305Z,103.84179
2022-09-26T10:46:11.299Z,104.56056
2022-09-26T10:51:12.264Z,104.8114
2022-09-26T10:56:13.186Z,104.40572
2022-09-26T11:01:14.175Z,105.46488
2022-09-26T11:06:15.147Z,106.19028
2022-09-26T11:11:16.078Z,107.18781
2022-09-26T11:16:17.106Z,106.78897
2022-09-26T11:21:28.320Z,106.84459
2022-09-26T11:26:30.032Z,107.39488
2022-09-26T11:42:36.596Z,107.7185
2022-09-26T11:47:37.572Z,107.51726
2022-09-26T11:52:38.538Z,108.60848
2022-09-26T11:57:39.445Z,109.01188
2022-09-26T12:02:40.727Z,110.17386
2022-09-26T12:07:42.117Z,110.97413
2022-09-26T12:12:43.035Z,111.21433
2022-09-26T12:17:43.958Z,111.6115
2022-09-26T12:22:45.298Z,112.70442
2022-09-26T12:27:46.234Z,113.80921
2022-09-26T12:32:47.187Z,113.7741
2022-09-26T12:37:48.086Z,113.79249
2022-09-26T12:42:49.094Z,113.83182
2022-09-26T12:47:50.117Z,113.84804
2022-09-26T12:52:51.078Z,114.43796
2022-09-26T12:57:51.992Z,115.64231
2022-09-26T13:02:53.016Z,116.66913
2022-09-26T13:07:54.019Z,116.64204
2022-09-26T13:12:54.942Z,116.52971
2022-09-26T13:17:55.904Z,116.48841
2022-09-26T13:22:56.845Z,117.15781
2022-09-26T13:27:57.764Z,117.81795
2022-09-26T13:32:58.691Z,117.75461
2022-09-26T13:38:02.993Z,118.24637
2022-09-26T13:43:06.191Z,118.79037
2022-09-26T13:48:07.133Z,119.21788
2022-09-26T13:53:08.105Z,119.32521
2022-09-26T13:58:09.011Z,120.50703
2022-09-26T14:03:10.014Z,121.54215
2022-09-26T14:08:11.144Z,122.50098
2022-09-26T14:13:12.055Z,122.66799
2022-09-26T14:18:13.006Z,123.14738
2022-09-26T14:23:13.939Z,123.72531
2022-09-26T14:28:14.851Z,123.98772
2022-09-26T14:33:15.794Z,124.21865
2022-09-26T14:38:16.791Z,124.81139
2022-09-26T14:43:17.748Z,125.34766
2022-09-26T14:48:18.684Z,125.18499
2022-09-26T14:53:19.727Z,126.15578
2022-09-26T14:58:20.735Z,126.1993
2022-09-26T15:03:21.770Z,126.72443
2022-09-26T15:08:22.866Z,126.46221
2022-09-26T15:13:23.781Z,127.12628
2022-09-26T15:18:24.805Z,127.41325
2022-09-26T15:23:25.863Z,128.08835
2022-09-26T15:28:26.904Z,128.45272
2022-09-26T15:33:27.850Z,128.09195
2022-09-26T15:38:28.839Z,128.12997
2022-09-26T15:43:29.773Z,128.50036
2022-09-26T15:48:30.717Z,128.84014
2022-09-26T15:53:31.835Z,129.44805
2022-09-26T15:58:32.754Z,129.8296
2022-09-26T16:03:33.711Z,129.74779
2022-09-26T16:08:34.617Z,129.81614
2022-09-26T16:13:35.531Z,130.2202
2022-09-26T16:18:36.490Z,130.3811
2022-09-26T16:23:37.386Z,130.63739
2022-09-26T16:28:38.324Z,131.07649
2022-09-26T16:33:39.269Z,131.4173
2022-09-26T16:38:40.260Z,131.5618
2022-09-26T16:43:41.359Z,131.72041
2022-09-26T16:48:42.440Z,132.45083
2022-09-26T16:53:43.362Z,133.02149
2022-09-26T16:58:44.304Z,132.8467
2022-09-26T17:03:45.273Z,132.95025
2022-09-26T17:08:46.481Z,133.18003
2022-09-26T17:13:47.407Z,133.52221
2022-09-26T17:18:48.396Z,133.3258
2022-09-26T17:23:49.480Z,133.15973
2022-09-26T17:28:50.421Z,133.57568
2022-09-26T17:33:51.385Z,133.66976
2022-09-26T17:38:52.394Z,134.19094
2022-09-26T17:43:53.341Z,134.18309
2022-09-26T17:48:54.428Z,134.26989
2022-09-26T17:53:55.360Z,134.35003
2022-09-26T17:58:56.297Z,134.72946
2022-09-26T18:03:57.390Z,135.27644
2022-09-26T18:08:58.437Z,135.78106
2022-09-26T18:13:59.638Z,135.71545
2022-09-26T18:19:06.057Z,135.97098
2022-09-26T18:24:08.371Z,135.8971
2022-09-26T18:29:09.444Z,135.87461
2022-09-26T18:34:10.530Z,135.60001
2022-09-26T18:39:11.602Z,135.73938
2022-09-26T18:44:12.707Z,136.0012
2022-09-26T18:49:13.768Z,136.33826
2022-09-26T18:54:15.043Z,136.4364
2022-09-26T18:59:16.313Z,136.81743
2022-09-26T19:04:17.266Z,136.93766
2022-09-26T19:09:18.341Z,137.20192
2022-09-26T19:14:19.395Z,137.47108
2022-09-26T19:19:20.426Z,137.55886
2022-09-26T19:24:21.421Z,138.35652
2022-09-26T19:29:22.932Z,138.82298
2022-09-26T19:34:24.026Z,139.10804
2022-09-26T19:39:25.193Z,139.39348
2022-09-26T19:44:26.213Z,139.99598
2022-09-26T19:49:27.234Z,140.11461
2022-09-26T19:54:28.294Z,140.04051
2022-09-26T19:59:29.748Z,140.15592
2022-09-26T20:04:30.680Z,140.57035
2022-09-26T20:09:31.696Z,140.49599
2022-09-26T20:14:32.629Z,140.45502
2022-09-26T20:19:33.714Z,140.92304
2022-09-26T20:24:34.706Z,142.02006
2022-09-26T20:29:35.700Z,142.93778
2022-09-26T20:34:36.763Z,142.73311
2022-09-26T20:39:37.851Z,143.27266
2022-09-26T20:44:38.761Z,143.85579
2022-09-26T20:49:39.711Z,144.19999
2022-09-26T20:54:40.837Z,144.68783
2022-09-26T20:59:42.121Z,144.75521
2022-09-26T21:04:43.031Z,145.3678
2022-09-26T21:09:43.934Z,145.61351
2022-09-26T21:14:44.872Z,145.83678
2022-09-26T21:19:45.857Z,146.33224
2022-09-26T21:24:46.785Z,146.62488
2022-09-26T21:29:47.723Z,147.24383
2022-09-26T21:34:48.654Z,147.15361
2022-09-26T21:39:49.566Z,147.57591
2022-09-26T21:44:50.552Z,147.95077
2022-09-26T21:49:51.505Z,148.33275
2022-09-26T21:54:52.524Z,148.87688
2022-09-26T21:59:53.449Z,149.29046
2022-09-26T22:04:54.365Z,149.89044
2022-09-26T22:09:55.261Z,150.59455
2022-09-26T22:14:56.193Z,151.44798
2022-09-26T22:19:57.129Z,152.43921
2022-09-26T22:24:58.039Z,153.12604
2022-09-26T22:29:58.984Z,153.12487
2022-09-26T22:34:59.913Z,153.51889
2022-09-26T22:40:00.795Z,154.2404
2022-09-26T22:45:01.794Z,154.87143
2022-09-26T22:50:02.700Z,155.0594
2022-09-26T22:55:03.600Z,155.74274
2022-09-26T23:00:04.557Z,155.9218
2022-09-26T23:05:05.498Z,156.41406
2022-09-26T23:10:06.467Z,157.05768
2022-09-26T23:15:07.365Z,157.91442
2022-09-26T23:20:08.305Z,158.99735
2022-09-26T23:25:09.254Z,159.86568
2022-09-26T23:30:10.150Z,160.05304
2022-09-26T23:35:11.197Z,160.68845
2022-09-26T23:40:12.305Z,161.09005
2022-09-26T23:45:13.370Z,161.75095
2022-09-26T23:50:14.351Z,162.04692
2022-09-26T23:55:15.297Z,162.34117
